Brimfield, Massachusetts
Current Conditions -  °F | °C
As of 11:09 PM on Tuesday 21 Oct 2014 (Local Time) from KCEF Reporting Station
Overcast Overcast  
Wind Chill: 54°   Ceiling: 1400
Heat Index: 54°   Visibility: 10mi
Dew Point: 50°   Wind: 7mph
Humidity: 88%   Direction: 360°N
Pressure: 29.97"   Gusts: NA
Location:  42.12°N, 72.2°W
Report Text: KCEF 220309Z AUTO 36006KT 10SM BKN014 OVC075 12/10 A2997 RMK AO2
Loading
Personal Weather Stations






























Interactive Weather Map
Tropical Storm Tracking
New forecast layout! Learn more

10-Day Weather Forecast

Advertisements
Track Severe Weather on mobile